CMA CGM Virginia — 2BCY3 — position and weather

sailwx.info

Track history (hours):
 
Tides and Currents Weather Stations Pressure Air Temp Water Temp Dewpoint Dewpoint Depression Visibility Wind Speed Wind Dir Waves Ship Positions

CMA CGM Virginia

Last reported at 2018-Apr-13 03:28 UTC. Time now 2018-Apr-22 18:17 UTC.
Position N 16°55' E 061°40'.
Warning: this ship's position is 9 days out of date.

Length 293 m; draft 13.3 m.

Type: Cargo ship. MMSI: 235065043.

Date/timePositionNaut miles runAvg speedWind from/ knotsBaromVisibWave heightAir tempDewpointWater temp
2018-Apr-13 03:28N 16°55' E 061°40'1616.2
2018-Apr-13 02:28N 16°59' E 061°56'1816.3
2018-Apr-13 01:23N 17°03' E 062°14'5016.6
2018-Apr-12 22:21N 17°14' E 063°06'617.0
2018-Apr-12 22:00N 17°15' E 063°12'1016.8
2018-Apr-12 21:24N 17°17' E 063°22'716.7
2018-Apr-12 21:00N 17°18' E 063°29'916.7
2018-Apr-12 20:30N 17°20' E 063°38'1016.6
2018-Apr-12 19:54N 17°22' E 063°48'716.5
2018-Apr-12 19:30N 17°24' E 063°55'816.2
2018-Apr-12 19:00N 17°25' E 064°03'816.2
2018-Apr-12 18:30N 17°27' E 064°11'816.1
2018-Apr-12 18:00N 17°29' E 064°19'2316.1
2018-Apr-12 16:34N 17°34' E 064°43'115.8
2018-Apr-12 16:30N 17°34' E 064°44'816.0
2018-Apr-12 16:00N 17°36' E 064°52'916.4
2018-Apr-12 15:27N 17°38' E 065°02'1016.4
2018-Apr-12 14:50N 17°40' E 065°12'616.5
2018-Apr-12 14:30N 17°41' E 065°18'916.6
2018-Apr-12 13:58N 17°43' E 065°27'816.5
2018-Apr-12 13:30N 17°45' E 065°35'816.6
2018-Apr-12 13:00N 17°47' E 065°43'816.6
2018-Apr-12 12:30N 17°48' E 065°51'916.5
2018-Apr-12 11:56N 17°50' E 066°01'716.5
2018-Apr-12 11:30N 17°52' E 066°08'916.8
2018-Apr-12 11:00N 17°54' E 066°17'1216.6
2018-Apr-12 10:16N 17°56' E 066°30'816.5
2018-Apr-12 09:45N 17°58' E 066°38'416.6
2018-Apr-12 09:30N 17°59' E 066°43'816.6
2018-Apr-12 09:00N 18°01' E 066°51'916.4
2018-Apr-12 08:28N 18°03' E 067°00'816.5
2018-Apr-12 08:00N 18°05' E 067°08'816.1
2018-Apr-12 07:30N 18°06' E 067°16'1616.2
2018-Apr-12 06:32N 18°10' E 067°32'116.2
2018-Apr-12 06:30N 18°10' E 067°33'916.2
2018-Apr-12 05:55N 18°12' E 067°43'816.2
2018-Apr-12 05:24N 18°14' E 067°51'716.9
2018-Apr-12 05:00N 18°15' E 067°58'816.6
2018-Apr-12 04:30N 18°17' E 068°07'816.2
2018-Apr-12 04:00N 18°19' E 068°15'816.1
2018-Apr-12 03:30N 18°21' E 068°23'1316.1
2018-Apr-12 02:41N 18°23' E 068°37'316.0
2018-Apr-12 02:30N 18°24' E 068°40'816.2
2018-Apr-12 02:00N 18°26' E 068°48'816.3
2018-Apr-12 01:30N 18°28' E 068°56'816.4
2018-Apr-12 01:00N 18°30' E 069°05'816.3
2018-Apr-12 00:30N 18°31' E 069°13'816.2
2018-Apr-12 00:00N 18°33' E 069°22'816.3
2018-Apr-11 23:30N 18°35' E 069°30'816.2
2018-Apr-11 23:00N 18°37' E 069°38'816.2
2018-Apr-11 22:30N 18°39' E 069°47'816.3
2018-Apr-11 22:00N 18°40' E 069°55'816.2
2018-Apr-11 21:30N 18°43' E 070°03'916.3
2018-Apr-11 20:59N 18°44' E 070°12'816.4
2018-Apr-11 20:30N 18°46' E 070°20'816.8
2018-Apr-11 20:00N 18°48' E 070°29'916.4
2018-Apr-11 19:28N 18°50' E 070°38'716.4
2018-Apr-11 19:00N 18°51' E 070°46'816.5
2018-Apr-11 18:30N 18°53' E 070°54'816.2
2018-Apr-11 18:00N 18°53' E 071°03'816.1
2018-Apr-11 17:30N 18°53' E 071°11'816.1
2018-Apr-11 17:00N 18°54' E 071°20'816.2
2018-Apr-11 16:30N 18°54' E 071°28'816.2
2018-Apr-11 16:00N 18°54' E 071°37'916.2
2018-Apr-11 15:28N 18°54' E 071°46'1016.1
2018-Apr-11 14:50N 18°54' E 071°57'716.2
2018-Apr-11 14:24N 18°54' E 072°04'716.1
2018-Apr-11 13:58N 18°53' E 072°12'716.1
2018-Apr-11 13:30N 18°52' E 072°19'816.1
2018-Apr-11 13:00N 18°51' E 072°28'816.0
2018-Apr-11 12:30N 18°51' E 072°36'714.4
2018-Apr-11 12:00N 18°50' E 072°44'510.8
2018-Apr-11 11:30N 18°52' E 072°49'6 0.5
2018-Apr-10 23:41N 18°56' E 072°54'1 6.9
2018-Apr-10 23:28N 18°55' E 072°52'4 8.7
2018-Apr-10 22:59N 18°52' E 072°50'911.8
2018-Apr-10 22:13N 18°50' E 072°41'4 2.1
2018-Apr-10 20:04N 18°48' E 072°36'0 0.0
2018-Apr-10 19:52N 18°48' E 072°36'0 0.0
2018-Apr-10 19:28N 18°48' E 072°36'0 0.0
2018-Apr-10 18:52N 18°48' E 072°36'0 0.0
2018-Apr-10 18:28N 18°48' E 072°36'0 0.0
2018-Apr-10 17:58N 18°48' E 072°36'0 0.0
2018-Apr-10 17:28N 18°48' E 072°36'0 0.0
2018-Apr-10 16:22N 18°48' E 072°36'0 0.0
2018-Apr-10 15:52N 18°48' E 072°36'0 0.1
2018-Apr-10 15:28N 18°48' E 072°36'0 0.1
2018-Apr-10 14:58N 18°48' E 072°36'0 0.0
2018-Apr-10 13:47N 18°48' E 072°36'0 0.0
2018-Apr-10 13:28N 18°48' E 072°36'0 0.0
2018-Apr-10 12:58N 18°48' E 072°36'0 0.0
2018-Apr-10 12:28N 18°48' E 072°36'0 0.0
2018-Apr-10 11:52N 18°48' E 072°36'0 0.0
2018-Apr-10 11:16N 18°48' E 072°36'0 0.0
2018-Apr-10 10:46N 18°48' E 072°36'0 0.0
2018-Apr-10 10:28N 18°48' E 072°36'0 0.0
2018-Apr-10 09:58N 18°48' E 072°36'0 0.0
2018-Apr-10 09:16N 18°48' E 072°36'0 0.0
2018-Apr-10 08:58N 18°48' E 072°36'0 0.1
2018-Apr-10 06:34N 18°48' E 072°36'0 0.1
2018-Apr-10 06:28N 18°48' E 072°36'0 0.0
2018-Apr-10 05:58N 18°48' E 072°36'0 0.1
2018-Apr-10 04:22N 18°48' E 072°36'0 0.5
2018-Apr-10 03:58N 18°48' E 072°36'2 3.1
2018-Apr-10 03:20N 18°48' E 072°34'5 7.9
2018-Apr-10 02:44N 18°51' E 072°30'311.6
2018-Apr-10 02:30N 18°53' E 072°32'612.1
2018-Apr-10 01:59N 18°60' E 072°30'1212.2
2018-Apr-10 01:01N 19°11' E 072°27'012.1
2018-Apr-10 01:00N 19°11' E 072°27'1812.4
2018-Apr-09 23:34N 19°29' E 072°25'112.8
2018-Apr-09 23:27N 19°30' E 072°25'913.0
2018-Apr-09 22:47N 19°39' E 072°26'1112.2
2018-Apr-09 21:53N 19°49' E 072°21'613.2
2018-Apr-09 21:26N 19°55' E 072°20'512.9
2018-Apr-09 21:00N 20°00' E 072°20'812.9
2018-Apr-09 20:24N 20°08' E 072°23'612.8
2018-Apr-09 19:57N 20°13' E 072°25'612.7
2018-Apr-09 19:30N 20°18' E 072°28'612.6
2018-Apr-09 19:00N 20°24' E 072°30'612.1
2018-Apr-09 18:29N 20°30' E 072°31'612.0
2018-Apr-09 18:00N 20°36' E 072°32'611.7
2018-Apr-09 17:30N 20°42' E 072°32'611.4
2018-Apr-09 17:00N 20°47' E 072°32'611.2
2018-Apr-09 16:30N 20°53' E 072°33'511.0
2018-Apr-09 16:00N 20°58' E 072°34'510.4
2018-Apr-09 15:29N 21°04' E 072°35'3 5.5
2018-Apr-09 15:00N 21°05' E 072°38'0 0.2
2018-Apr-09 14:28N 21°05' E 072°38'0 0.0
2018-Apr-09 13:58N 21°05' E 072°38'0 0.0
2018-Apr-09 13:28N 21°05' E 072°38'0 0.0
2018-Apr-09 12:46N 21°05' E 072°38'0 0.0
2018-Apr-09 12:28N 21°05' E 072°38'0 0.0
2018-Apr-09 11:58N 21°05' E 072°38'0 0.0
2018-Apr-09 11:22N 21°05' E 072°38'0 0.0
2018-Apr-09 10:58N 21°05' E 072°38'0 0.0
2018-Apr-09 10:28N 21°05' E 072°38'0 0.0
2018-Apr-09 09:58N 21°05' E 072°38'0 0.0
2018-Apr-09 09:28N 21°05' E 072°38'0 0.0
2018-Apr-09 08:52N 21°05' E 072°38'0 0.0
2018-Apr-09 08:04N 21°05' E 072°38'0 0.1
2018-Apr-09 07:58N 21°05' E 072°38'0 0.0
2018-Apr-09 06:59N 21°05' E 072°38'0 1.0
2018-Apr-09 06:30N 21°05' E 072°37'2 4.5
2018-Apr-09 06:00N 21°05' E 072°35'4 7.2
2018-Apr-09 05:30N 21°01' E 072°34'713.7
2018-Apr-09 05:00N 20°54' E 072°33'611.1
2018-Apr-09 04:30N 20°49' E 072°33'916.6
2018-Apr-09 03:59N 20°40' E 072°31'816.0
2018-Apr-09 03:28N 20°32' E 072°29'714.4
2018-Apr-09 02:58N 20°25' E 072°30'918.7
2018-Apr-09 02:30N 20°17' E 072°27'1018.9
2018-Apr-09 01:59N 20°08' E 072°23'1118.6
2018-Apr-09 01:25N 19°58' E 072°20'817.9
2018-Apr-09 01:00N 19°59' E 072°12'918.5
2018-Apr-09 00:30N 20°01' E 072°02'918.5
2018-Apr-09 00:00N 20°04' E 071°53'918.3
2018-Apr-08 23:30N 20°07' E 071°44'918.2
2018-Apr-08 23:00N 20°10' E 071°35'917.8
2018-Apr-08 22:30N 20°12' E 071°25'1017.9
2018-Apr-08 21:58N 20°13' E 071°15'817.7
2018-Apr-08 21:30N 20°12' E 071°06'916.4
2018-Apr-08 20:57N 20°16' E 070°58'818.0
2018-Apr-08 20:30N 20°23' E 070°53'917.9
2018-Apr-08 20:00N 20°26' E 070°44'917.9
2018-Apr-08 19:30N 20°29' E 070°35'917.8
2018-Apr-08 19:00N 20°32' E 070°26'917.8
2018-Apr-08 18:30N 20°35' E 070°17'917.7
2018-Apr-08 17:59N 20°38' E 070°08'1017.8
2018-Apr-08 17:24N 20°41' E 069°57'717.9
2018-Apr-08 17:00N 20°43' E 069°50'917.2
2018-Apr-08 16:30N 20°46' E 069°41'816.4
2018-Apr-08 16:00N 20°49' E 069°33'816.9
2018-Apr-08 15:30N 20°56' E 069°28'917.1
2018-Apr-08 15:00N 21°03' E 069°23'917.1
2018-Apr-08 14:30N 21°10' E 069°18'917.0
2018-Apr-08 14:00N 21°18' E 069°13'91 9.1
2018-Apr-08 04:03N 22°44' E 069°41'0 0.0
2018-Apr-08 03:46N 22°44' E 069°41'0 0.0
2018-Apr-07 22:23N 22°44' E 069°41'180 3.9
2018-Apr-06 00:22N 24°26' E 066°59'  
Track history (hours):
 
Tides and Currents Weather Stations Pressure Air Temp Water Temp Dewpoint Dewpoint Depression Visibility Wind Speed Wind Dir Waves Ship Positions

CMA CGM Virginia

Last reported at 2018-Apr-13 03:28 UTC. Time now 2018-Apr-22 18:17 UTC.
Position N 16°55' E 061°40'.
Warning: this ship's position is 9 days out of date.

Length 293 m; draft 13.3 m.

Type: Cargo ship. MMSI: 235065043.

Date/timePositionNaut miles runAvg speedWind from/ knotsBaromVisibWave heightAir tempDewpointWater temp
2018-Apr-13 03:28N 16°55' E 061°40'1616.2
2018-Apr-13 02:28N 16°59' E 061°56'1816.3
2018-Apr-13 01:23N 17°03' E 062°14'5016.6
2018-Apr-12 22:21N 17°14' E 063°06'617.0
2018-Apr-12 22:00N 17°15' E 063°12'1016.8
2018-Apr-12 21:24N 17°17' E 063°22'716.7
2018-Apr-12 21:00N 17°18' E 063°29'916.7
2018-Apr-12 20:30N 17°20' E 063°38'1016.6
2018-Apr-12 19:54N 17°22' E 063°48'716.5
2018-Apr-12 19:30N 17°24' E 063°55'816.2
2018-Apr-12 19:00N 17°25' E 064°03'816.2
2018-Apr-12 18:30N 17°27' E 064°11'816.1
2018-Apr-12 18:00N 17°29' E 064°19'2316.1
2018-Apr-12 16:34N 17°34' E 064°43'115.8
2018-Apr-12 16:30N 17°34' E 064°44'816.0
2018-Apr-12 16:00N 17°36' E 064°52'916.4
2018-Apr-12 15:27N 17°38' E 065°02'1016.4
2018-Apr-12 14:50N 17°40' E 065°12'616.5
2018-Apr-12 14:30N 17°41' E 065°18'916.6
2018-Apr-12 13:58N 17°43' E 065°27'816.5
2018-Apr-12 13:30N 17°45' E 065°35'816.6
2018-Apr-12 13:00N 17°47' E 065°43'816.6
2018-Apr-12 12:30N 17°48' E 065°51'916.5
2018-Apr-12 11:56N 17°50' E 066°01'716.5
2018-Apr-12 11:30N 17°52' E 066°08'916.8
2018-Apr-12 11:00N 17°54' E 066°17'1216.6
2018-Apr-12 10:16N 17°56' E 066°30'816.5
2018-Apr-12 09:45N 17°58' E 066°38'416.6
2018-Apr-12 09:30N 17°59' E 066°43'816.6
2018-Apr-12 09:00N 18°01' E 066°51'916.4
2018-Apr-12 08:28N 18°03' E 067°00'816.5
2018-Apr-12 08:00N 18°05' E 067°08'816.1
2018-Apr-12 07:30N 18°06' E 067°16'1616.2
2018-Apr-12 06:32N 18°10' E 067°32'116.2
2018-Apr-12 06:30N 18°10' E 067°33'916.2
2018-Apr-12 05:55N 18°12' E 067°43'816.2
2018-Apr-12 05:24N 18°14' E 067°51'716.9
2018-Apr-12 05:00N 18°15' E 067°58'816.6
2018-Apr-12 04:30N 18°17' E 068°07'816.2
2018-Apr-12 04:00N 18°19' E 068°15'816.1
2018-Apr-12 03:30N 18°21' E 068°23'1316.1
2018-Apr-12 02:41N 18°23' E 068°37'316.0
2018-Apr-12 02:30N 18°24' E 068°40'816.2
2018-Apr-12 02:00N 18°26' E 068°48'816.3
2018-Apr-12 01:30N 18°28' E 068°56'816.4
2018-Apr-12 01:00N 18°30' E 069°05'816.3
2018-Apr-12 00:30N 18°31' E 069°13'816.2
2018-Apr-12 00:00N 18°33' E 069°22'816.3
2018-Apr-11 23:30N 18°35' E 069°30'816.2
2018-Apr-11 23:00N 18°37' E 069°38'816.2
2018-Apr-11 22:30N 18°39' E 069°47'816.3
2018-Apr-11 22:00N 18°40' E 069°55'816.2
2018-Apr-11 21:30N 18°43' E 070°03'916.3
2018-Apr-11 20:59N 18°44' E 070°12'816.4
2018-Apr-11 20:30N 18°46' E 070°20'816.8
2018-Apr-11 20:00N 18°48' E 070°29'916.4
2018-Apr-11 19:28N 18°50' E 070°38'716.4
2018-Apr-11 19:00N 18°51' E 070°46'816.5
2018-Apr-11 18:30N 18°53' E 070°54'816.2
2018-Apr-11 18:00N 18°53' E 071°03'816.1
2018-Apr-11 17:30N 18°53' E 071°11'816.1
2018-Apr-11 17:00N 18°54' E 071°20'816.2
2018-Apr-11 16:30N 18°54' E 071°28'816.2
2018-Apr-11 16:00N 18°54' E 071°37'916.2
2018-Apr-11 15:28N 18°54' E 071°46'1016.1
2018-Apr-11 14:50N 18°54' E 071°57'716.2
2018-Apr-11 14:24N 18°54' E 072°04'716.1
2018-Apr-11 13:58N 18°53' E 072°12'716.1
2018-Apr-11 13:30N 18°52' E 072°19'816.1
2018-Apr-11 13:00N 18°51' E 072°28'816.0
2018-Apr-11 12:30N 18°51' E 072°36'714.4
2018-Apr-11 12:00N 18°50' E 072°44'510.8
2018-Apr-11 11:30N 18°52' E 072°49'6 0.5
2018-Apr-10 23:41N 18°56' E 072°54'1 6.9
2018-Apr-10 23:28N 18°55' E 072°52'4 8.7
2018-Apr-10 22:59N 18°52' E 072°50'911.8
2018-Apr-10 22:13N 18°50' E 072°41'4 2.1
2018-Apr-10 20:04N 18°48' E 072°36'0 0.0
2018-Apr-10 19:52N 18°48' E 072°36'0 0.0
2018-Apr-10 19:28N 18°48' E 072°36'0 0.0
2018-Apr-10 18:52N 18°48' E 072°36'0 0.0
2018-Apr-10 18:28N 18°48' E 072°36'0 0.0
2018-Apr-10 17:58N 18°48' E 072°36'0 0.0
2018-Apr-10 17:28N 18°48' E 072°36'0 0.0
2018-Apr-10 16:22N 18°48' E 072°36'0 0.0
2018-Apr-10 15:52N 18°48' E 072°36'0 0.1
2018-Apr-10 15:28N 18°48' E 072°36'0 0.1
2018-Apr-10 14:58N 18°48' E 072°36'0 0.0
2018-Apr-10 13:47N 18°48' E 072°36'0 0.0
2018-Apr-10 13:28N 18°48' E 072°36'0 0.0
2018-Apr-10 12:58N 18°48' E 072°36'0 0.0
2018-Apr-10 12:28N 18°48' E 072°36'0 0.0
2018-Apr-10 11:52N 18°48' E 072°36'0 0.0
2018-Apr-10 11:16N 18°48' E 072°36'0 0.0
2018-Apr-10 10:46N 18°48' E 072°36'0 0.0
2018-Apr-10 10:28N 18°48' E 072°36'0 0.0
2018-Apr-10 09:58N 18°48' E 072°36'0 0.0
2018-Apr-10 09:16N 18°48' E 072°36'0 0.0
2018-Apr-10 08:58N 18°48' E 072°36'0 0.1
2018-Apr-10 06:34N 18°48' E 072°36'0 0.1
2018-Apr-10 06:28N 18°48' E 072°36'0 0.0
2018-Apr-10 05:58N 18°48' E 072°36'0 0.1
2018-Apr-10 04:22N 18°48' E 072°36'0 0.5
2018-Apr-10 03:58N 18°48' E 072°36'2 3.1
2018-Apr-10 03:20N 18°48' E 072°34'5 7.9
2018-Apr-10 02:44N 18°51' E 072°30'311.6
2018-Apr-10 02:30N 18°53' E 072°32'612.1
2018-Apr-10 01:59N 18°60' E 072°30'1212.2
2018-Apr-10 01:01N 19°11' E 072°27'012.1
2018-Apr-10 01:00N 19°11' E 072°27'1812.4
2018-Apr-09 23:34N 19°29' E 072°25'112.8
2018-Apr-09 23:27N 19°30' E 072°25'913.0
2018-Apr-09 22:47N 19°39' E 072°26'1112.2
2018-Apr-09 21:53N 19°49' E 072°21'613.2
2018-Apr-09 21:26N 19°55' E 072°20'512.9
2018-Apr-09 21:00N 20°00' E 072°20'812.9
2018-Apr-09 20:24N 20°08' E 072°23'612.8
2018-Apr-09 19:57N 20°13' E 072°25'612.7
2018-Apr-09 19:30N 20°18' E 072°28'612.6
2018-Apr-09 19:00N 20°24' E 072°30'612.1
2018-Apr-09 18:29N 20°30' E 072°31'612.0
2018-Apr-09 18:00N 20°36' E 072°32'611.7
2018-Apr-09 17:30N 20°42' E 072°32'611.4
2018-Apr-09 17:00N 20°47' E 072°32'611.2
2018-Apr-09 16:30N 20°53' E 072°33'511.0
2018-Apr-09 16:00N 20°58' E 072°34'510.4
2018-Apr-09 15:29N 21°04' E 072°35'3 5.5
2018-Apr-09 15:00N 21°05' E 072°38'0 0.2
2018-Apr-09 14:28N 21°05' E 072°38'0 0.0
2018-Apr-09 13:58N 21°05' E 072°38'0 0.0
2018-Apr-09 13:28N 21°05' E 072°38'0 0.0
2018-Apr-09 12:46N 21°05' E 072°38'0 0.0
2018-Apr-09 12:28N 21°05' E 072°38'0 0.0
2018-Apr-09 11:58N 21°05' E 072°38'0 0.0
2018-Apr-09 11:22N 21°05' E 072°38'0 0.0
2018-Apr-09 10:58N 21°05' E 072°38'0 0.0
2018-Apr-09 10:28N 21°05' E 072°38'0 0.0
2018-Apr-09 09:58N 21°05' E 072°38'0 0.0
2018-Apr-09 09:28N 21°05' E 072°38'0 0.0
2018-Apr-09 08:52N 21°05' E 072°38'0 0.0
2018-Apr-09 08:04N 21°05' E 072°38'0 0.1
2018-Apr-09 07:58N 21°05' E 072°38'0 0.0
2018-Apr-09 06:59N 21°05' E 072°38'0 1.0
2018-Apr-09 06:30N 21°05' E 072°37'2 4.5
2018-Apr-09 06:00N 21°05' E 072°35'4 7.2
2018-Apr-09 05:30N 21°01' E 072°34'713.7
2018-Apr-09 05:00N 20°54' E 072°33'611.1
2018-Apr-09 04:30N 20°49' E 072°33'916.6
2018-Apr-09 03:59N 20°40' E 072°31'816.0
2018-Apr-09 03:28N 20°32' E 072°29'714.4
2018-Apr-09 02:58N 20°25' E 072°30'918.7
2018-Apr-09 02:30N 20°17' E 072°27'1018.9
2018-Apr-09 01:59N 20°08' E 072°23'1118.6
2018-Apr-09 01:25N 19°58' E 072°20'817.9
2018-Apr-09 01:00N 19°59' E 072°12'918.5
2018-Apr-09 00:30N 20°01' E 072°02'918.5
2018-Apr-09 00:00N 20°04' E 071°53'918.3
2018-Apr-08 23:30N 20°07' E 071°44'918.2
2018-Apr-08 23:00N 20°10' E 071°35'917.8
2018-Apr-08 22:30N 20°12' E 071°25'1017.9
2018-Apr-08 21:58N 20°13' E 071°15'817.7
2018-Apr-08 21:30N 20°12' E 071°06'916.4
2018-Apr-08 20:57N 20°16' E 070°58'818.0
2018-Apr-08 20:30N 20°23' E 070°53'917.9
2018-Apr-08 20:00N 20°26' E 070°44'917.9
2018-Apr-08 19:30N 20°29' E 070°35'917.8
2018-Apr-08 19:00N 20°32' E 070°26'917.8
2018-Apr-08 18:30N 20°35' E 070°17'917.7
2018-Apr-08 17:59N 20°38' E 070°08'1017.8
2018-Apr-08 17:24N 20°41' E 069°57'717.9
2018-Apr-08 17:00N 20°43' E 069°50'917.2
2018-Apr-08 16:30N 20°46' E 069°41'816.4
2018-Apr-08 16:00N 20°49' E 069°33'816.9
2018-Apr-08 15:30N 20°56' E 069°28'917.1
2018-Apr-08 15:00N 21°03' E 069°23'917.1
2018-Apr-08 14:30N 21°10' E 069°18'917.0
2018-Apr-08 14:00N 21°18' E 069°13'91 9.1
2018-Apr-08 04:03N 22°44' E 069°41'0 0.0
2018-Apr-08 03:46N 22°44' E 069°41'0 0.0
2018-Apr-07 22:23N 22°44' E 069°41'180 3.9
2018-Apr-06 00:22N 24°26' E 066°59'  

Dump ship's entire track history